createdAt,value
2023-05-01T00:01:33.586Z,86.62
2023-05-01T00:04:00.879Z,87.05
2023-05-01T00:06:28.399Z,87.58
2023-05-01T00:08:55.297Z,87.63
2023-05-01T00:11:22.922Z,87.54
2023-05-01T00:13:49.923Z,86.98
2023-05-01T00:16:17.913Z,86.66
2023-05-01T00:18:44.888Z,86.14
2023-05-01T00:21:11.695Z,85.33
2023-05-01T00:23:38.600Z,84.98
2023-05-01T00:26:05.482Z,84.15
2023-05-01T00:28:32.836Z,83.76
2023-05-01T00:30:59.779Z,83.52
2023-05-01T00:33:26.656Z,83.50
2023-05-01T00:35:53.573Z,83.38
2023-05-01T00:38:20.479Z,83.49
2023-05-01T00:40:47.571Z,83.89
2023-05-01T00:43:14.377Z,84.26
2023-05-01T00:45:43.924Z,84.46
2023-05-01T00:48:10.971Z,84.55
2023-05-01T00:50:38.230Z,84.91
2023-05-01T00:53:05.142Z,85.06
2023-05-01T00:55:32.272Z,85.10
2023-05-01T00:57:59.365Z,85.67
2023-05-01T01:00:26.645Z,87.00
2023-05-01T01:02:53.598Z,87.83
2023-05-01T01:05:20.549Z,88.28
2023-05-01T01:07:59.705Z,89.00
2023-05-01T01:10:51.692Z,89.54
2023-05-01T01:13:22.453Z,90.22
2023-05-01T01:16:14.371Z,90.94
2023-05-01T01:18:46.863Z,92.18
2023-05-01T01:21:43.194Z,93.25
2023-05-01T01:24:29.253Z,94.61
2023-05-01T01:27:17.969Z,95.78
2023-05-01T01:30:17.182Z,97.19
2023-05-01T01:33:24.052Z,98.55
2023-05-01T01:35:55.816Z,99.91
2023-05-01T01:38:25.003Z,100.00
2023-05-01T01:41:09.305Z,100.00
2023-05-01T01:43:44.916Z,100.00
2023-05-01T01:46:11.993Z,100.00
2023-05-01T01:48:42.274Z,100.00
2023-05-01T01:51:12.313Z,100.00
2023-05-01T01:53:39.529Z,100.00
2023-05-01T01:56:07.257Z,100.00
2023-05-01T01:58:36.019Z,100.00
2023-05-01T02:01:02.910Z,100.00
2023-05-01T02:03:29.855Z,100.00
2023-05-01T02:05:56.921Z,100.00
2023-05-01T02:08:23.792Z,100.00
2023-05-01T02:10:50.988Z,100.00
2023-05-01T02:13:17.828Z,100.00
2023-05-01T02:15:45.107Z,100.00
2023-05-01T02:18:11.924Z,100.00
2023-05-01T02:20:38.793Z,100.00
2023-05-01T02:23:05.794Z,100.00
2023-05-01T02:25:32.674Z,100.00
2023-05-01T02:28:00.918Z,100.00
2023-05-01T02:30:27.986Z,100.00
2023-05-01T02:32:54.987Z,100.00
2023-05-01T02:35:22.354Z,100.00
2023-05-01T02:37:49.141Z,100.00
2023-05-01T02:40:15.990Z,100.00
2023-05-01T02:42:43.560Z,100.00
2023-05-01T02:45:11.054Z,100.00
2023-05-01T02:47:38.692Z,100.00
2023-05-01T02:50:06.034Z,100.00
2023-05-01T02:52:32.917Z,100.00
2023-05-01T02:55:12.596Z,100.00
2023-05-01T02:57:39.554Z,100.00
2023-05-01T03:00:09.488Z,100.00
2023-05-01T03:02:36.428Z,100.00
2023-05-01T03:05:03.511Z,100.00
2023-05-01T03:07:35.242Z,100.00
2023-05-01T03:10:04.183Z,100.00
2023-05-01T03:12:31.556Z,100.00
2023-05-01T03:14:58.612Z,100.00
2023-05-01T03:17:25.698Z,100.00
2023-05-01T03:19:52.747Z,100.00
2023-05-01T03:22:19.683Z,100.00
2023-05-01T03:24:47.762Z,100.00
2023-05-01T03:27:14.705Z,100.00
2023-05-01T03:29:41.469Z,100.00
2023-05-01T03:32:08.338Z,100.00
2023-05-01T03:34:35.930Z,100.00
2023-05-01T03:37:02.764Z,100.00
2023-05-01T03:39:29.585Z,100.00
2023-05-01T03:42:31.495Z,100.00
2023-05-01T03:45:02.460Z,100.00
2023-05-01T03:47:29.920Z,100.00
2023-05-01T03:49:57.087Z,100.00
2023-05-01T03:52:24.509Z,100.00
2023-05-01T03:54:52.039Z,100.00
2023-05-01T03:57:39.122Z,100.00
2023-05-01T04:00:07.296Z,100.00
2023-05-01T04:02:42.474Z,100.00
2023-05-01T04:05:11.686Z,100.00
2023-05-01T04:07:40.336Z,100.00
2023-05-01T04:10:09.755Z,100.00
2023-05-01T04:12:37.412Z,100.00
2023-05-01T04:15:04.712Z,100.00
2023-05-01T04:17:32.376Z,100.00
2023-05-01T04:20:00.295Z,100.00
2023-05-01T04:22:27.277Z,100.00
2023-05-01T04:24:54.506Z,100.00
2023-05-01T04:27:21.766Z,100.00
2023-05-01T04:29:48.719Z,100.00
2023-05-01T04:32:16.725Z,100.00
2023-05-01T04:34:46.460Z,100.00
2023-05-01T04:37:14.578Z,100.00
2023-05-01T04:39:42.189Z,100.00
2023-05-01T04:42:09.066Z,99.83
2023-05-01T04:44:37.363Z,98.03
2023-05-01T04:47:05.804Z,94.39
2023-05-01T04:49:32.902Z,91.28
2023-05-01T04:51:59.796Z,89.12
2023-05-01T04:54:32.794Z,88.69
2023-05-01T04:56:59.606Z,87.44
2023-05-01T04:59:26.835Z,86.61
2023-05-01T05:01:54.717Z,83.91
2023-05-01T05:04:22.292Z,80.55
2023-05-01T05:06:50.536Z,78.43
2023-05-01T05:09:22.161Z,77.08
2023-05-01T05:11:49.079Z,75.29
2023-05-01T05:14:21.991Z,73.40
2023-05-01T05:16:48.997Z,73.41
2023-05-01T05:19:16.729Z,72.87
2023-05-01T05:21:43.744Z,70.93
2023-05-01T05:24:10.642Z,68.84
2023-05-01T05:26:38.338Z,66.88
2023-05-01T05:29:06.277Z,65.08
2023-05-01T05:31:33.199Z,64.83
2023-05-01T05:34:00.294Z,63.80
2023-05-01T05:36:28.145Z,64.19
2023-05-01T05:38:55.109Z,63.13
2023-05-01T05:41:22.010Z,61.96
2023-05-01T05:43:50.499Z,61.39
2023-05-01T05:46:17.366Z,61.02
2023-05-01T05:48:44.707Z,60.68
2023-05-01T05:51:12.234Z,58.89
2023-05-01T05:53:39.705Z,57.81
2023-05-01T05:56:07.370Z,57.25
2023-05-01T05:58:34.371Z,55.89
2023-05-01T06:01:01.241Z,55.19
2023-05-01T06:03:28.624Z,53.79
2023-05-01T06:05:58.837Z,52.96
2023-05-01T06:08:25.796Z,51.71
2023-05-01T06:10:52.789Z,51.74
2023-05-01T06:13:19.539Z,50.28
2023-05-01T06:15:48.371Z,50.46
2023-05-01T06:18:15.412Z,49.37
2023-05-01T06:20:42.910Z,47.83
2023-05-01T06:23:10.137Z,47.65
2023-05-01T06:25:57.282Z,47.73
2023-05-01T06:28:24.190Z,47.97
2023-05-01T06:30:51.071Z,46.63
2023-05-01T06:33:18.730Z,44.98
2023-05-01T06:35:46.341Z,45.12
2023-05-01T06:38:13.149Z,42.22
2023-05-01T06:40:40.607Z,41.54
2023-05-01T06:43:07.399Z,42.54
2023-05-01T06:45:34.315Z,40.50
2023-05-01T06:48:01.162Z,38.98
2023-05-01T06:50:29.179Z,40.11
2023-05-01T06:52:56.062Z,40.21
2023-05-01T06:55:23.126Z,39.24
2023-05-01T06:57:50.386Z,37.15
2023-05-01T07:00:18.198Z,35.31
2023-05-01T07:02:46.254Z,34.73
2023-05-01T07:05:13.434Z,35.17
2023-05-01T07:07:44.620Z,34.86
2023-05-01T07:10:17.272Z,35.09
2023-05-01T07:12:44.228Z,35.38
2023-05-01T07:15:11.232Z,34.52
2023-05-01T07:17:38.328Z,34.30
2023-05-01T07:20:06.059Z,35.49
2023-05-01T07:22:32.844Z,35.85
2023-05-01T07:25:01.340Z,36.18
2023-05-01T07:27:29.033Z,36.64
2023-05-01T07:29:57.442Z,37.24
2023-05-01T07:32:24.673Z,36.70
2023-05-01T07:34:51.773Z,35.71
2023-05-01T07:37:19.030Z,36.14
2023-05-01T07:39:45.935Z,35.46
2023-05-01T07:42:12.820Z,35.80
2023-05-01T07:44:39.671Z,35.75
2023-05-01T07:47:06.485Z,35.95
2023-05-01T07:49:39.890Z,35.57
2023-05-01T07:52:09.833Z,35.71
2023-05-01T07:54:36.861Z,35.79
2023-05-01T07:57:06.025Z,35.49
2023-05-01T07:59:32.871Z,35.32
2023-05-01T08:01:59.862Z,35.30
2023-05-01T08:04:27.927Z,35.50
2023-05-01T08:06:54.851Z,35.13
2023-05-01T08:09:22.130Z,35.18
2023-05-01T08:11:48.974Z,34.54
2023-05-01T08:14:17.891Z,34.04
2023-05-01T08:16:44.929Z,33.52
2023-05-01T08:19:12.061Z,33.57
2023-05-01T08:21:38.869Z,33.35
2023-05-01T08:24:09.014Z,32.50
2023-05-01T08:26:35.928Z,32.06
2023-05-01T08:29:02.952Z,31.10
2023-05-01T08:31:29.744Z,31.22
2023-05-01T08:33:56.855Z,31.56
2023-05-01T08:36:23.700Z,30.74
2023-05-01T08:38:50.487Z,29.61
2023-05-01T08:41:24.025Z,29.56
2023-05-01T08:43:50.984Z,29.04
2023-05-01T08:46:23.994Z,29.07
2023-05-01T08:48:50.879Z,28.43
2023-05-01T08:51:21.251Z,28.56
2023-05-01T08:53:50.791Z,28.99
2023-05-01T08:56:18.234Z,28.63
2023-05-01T08:58:45.493Z,29.60
2023-05-01T09:01:15.197Z,29.67
2023-05-01T09:03:44.700Z,29.37
2023-05-01T09:06:11.688Z,29.21
2023-05-01T09:08:38.644Z,29.28
2023-05-01T09:11:06.437Z,28.83
2023-05-01T09:13:33.452Z,28.68
2023-05-01T09:16:01.139Z,28.98
2023-05-01T09:18:50.596Z,27.87
2023-05-01T09:21:18.762Z,27.51
2023-05-01T09:23:45.568Z,27.09
2023-05-01T09:26:12.502Z,27.51
2023-05-01T09:28:44.018Z,27.63
2023-05-01T09:31:21.796Z,27.96
2023-05-01T09:33:54.557Z,28.34
2023-05-01T09:36:21.877Z,28.58
2023-05-01T09:38:48.629Z,28.56
2023-05-01T09:41:15.596Z,28.68
2023-05-01T09:43:44.066Z,28.25
2023-05-01T09:46:10.936Z,27.75
2023-05-01T09:48:38.143Z,27.50
2023-05-01T09:51:22.812Z,27.98
2023-05-01T09:53:49.915Z,28.41
2023-05-01T09:56:17.454Z,27.99
2023-05-01T09:58:44.750Z,28.16
2023-05-01T10:01:11.744Z,27.07
2023-05-01T10:03:39.023Z,28.18
2023-05-01T10:06:06.042Z,27.92
2023-05-01T10:08:49.412Z,28.19
2023-05-01T10:11:16.438Z,27.93
2023-05-01T10:13:43.402Z,28.19
2023-05-01T10:16:28.757Z,28.18
2023-05-01T10:18:57.408Z,28.02
2023-05-01T10:21:24.480Z,28.64
2023-05-01T10:23:52.711Z,29.20
2023-05-01T10:26:20.710Z,28.80
2023-05-01T10:28:49.202Z,28.40
2023-05-01T10:31:16.852Z,28.27
2023-05-01T10:33:44.392Z,28.09
2023-05-01T10:36:23.957Z,28.46
2023-05-01T10:38:50.820Z,28.94
2023-05-01T10:41:17.803Z,28.82
2023-05-01T10:43:44.660Z,29.26
2023-05-01T10:46:15.640Z,29.65
2023-05-01T10:48:43.897Z,29.22
2023-05-01T10:51:13.097Z,29.66
2023-05-01T10:53:41.060Z,28.51
2023-05-01T10:56:27.055Z,29.67
2023-05-01T10:58:54.012Z,30.40
2023-05-01T11:01:28.206Z,29.83
2023-05-01T11:03:58.972Z,29.78
2023-05-01T11:06:26.025Z,30.95
2023-05-01T11:08:53.452Z,30.62
2023-05-01T11:11:21.244Z,29.98
2023-05-01T11:14:08.776Z,30.72
2023-05-01T11:16:46.360Z,30.46
2023-05-01T11:19:22.653Z,29.57
2023-05-01T11:21:50.658Z,29.12
2023-05-01T11:24:20.591Z,29.84
2023-05-01T11:26:47.457Z,30.59
2023-05-01T11:29:14.292Z,31.00
2023-05-01T11:31:41.530Z,29.83
2023-05-01T11:34:08.414Z,28.99
2023-05-01T11:36:51.516Z,29.44
2023-05-01T11:39:19.025Z,29.13
2023-05-01T11:41:46.676Z,29.01
2023-05-01T11:44:17.649Z,28.37
2023-05-01T11:46:44.743Z,28.56
2023-05-01T11:49:11.682Z,28.09
2023-05-01T11:51:38.611Z,27.41
2023-05-01T11:54:09.888Z,27.96
2023-05-01T11:56:37.439Z,28.81
2023-05-01T11:59:18.101Z,30.19
2023-05-01T12:01:45.957Z,29.94
2023-05-01T12:04:13.996Z,28.28
2023-05-01T12:06:45.970Z,28.36
2023-05-01T12:09:20.435Z,28.08
2023-05-01T12:11:51.192Z,28.84
2023-05-01T12:14:19.534Z,29.30
2023-05-01T12:16:46.606Z,29.18
2023-05-01T12:19:14.409Z,28.94
2023-05-01T12:21:41.373Z,29.05
2023-05-01T12:24:18.373Z,29.26
2023-05-01T12:26:45.644Z,29.69
2023-05-01T12:29:12.657Z,29.42
2023-05-01T12:31:47.516Z,28.57
2023-05-01T12:34:14.418Z,28.60
2023-05-01T12:36:41.254Z,30.07
2023-05-01T12:39:09.803Z,30.13
2023-05-01T12:41:38.373Z,28.69
2023-05-01T12:44:27.949Z,29.46
2023-05-01T12:47:16.151Z,28.57
2023-05-01T12:49:42.926Z,28.12
2023-05-01T12:52:09.764Z,28.62
2023-05-01T12:54:37.878Z,29.31
2023-05-01T12:57:14.669Z,29.13
2023-05-01T12:59:43.168Z,29.05
2023-05-01T13:02:12.536Z,29.00
2023-05-01T13:04:39.528Z,29.06
2023-05-01T13:07:15.130Z,29.10
2023-05-01T13:09:56.024Z,28.75
2023-05-01T13:12:23.566Z,28.72
2023-05-01T13:14:50.332Z,28.80
2023-05-01T13:17:27.970Z,30.21
2023-05-01T13:19:55.014Z,29.14
2023-05-01T13:22:48.460Z,29.08
2023-05-01T13:25:17.498Z,29.55
2023-05-01T13:27:51.313Z,29.78
2023-05-01T13:30:31.077Z,30.32
2023-05-01T13:32:57.916Z,29.52
2023-05-01T13:35:25.712Z,29.40
2023-05-01T13:37:52.866Z,28.17
2023-05-01T13:40:19.861Z,29.05
2023-05-01T13:42:47.043Z,29.59
2023-05-01T13:45:14.832Z,29.72
2023-05-01T13:47:41.849Z,28.98
2023-05-01T13:50:16.260Z,29.70
2023-05-01T13:52:44.333Z,29.94
2023-05-01T13:55:12.123Z,29.70
2023-05-01T13:57:40.614Z,29.63
2023-05-01T14:00:09.299Z,29.39
2023-05-01T14:02:43.925Z,28.96
2023-05-01T14:05:11.096Z,29.08
2023-05-01T14:07:46.491Z,28.32
2023-05-01T14:10:13.447Z,27.93
2023-05-01T14:12:40.850Z,28.36
2023-05-01T14:15:11.717Z,28.68
2023-05-01T14:17:38.985Z,29.06
2023-05-01T14:20:08.888Z,29.05
2023-05-01T14:22:45.477Z,29.74
2023-05-01T14:25:28.799Z,29.83
2023-05-01T14:27:56.131Z,30.05
2023-05-01T14:30:33.489Z,29.72
2023-05-01T14:33:10.296Z,28.90
2023-05-01T14:35:38.154Z,28.97
2023-05-01T14:38:15.220Z,28.73
2023-05-01T14:40:42.331Z,28.96
2023-05-01T14:43:10.570Z,29.19
2023-05-01T14:45:37.529Z,29.42
2023-05-01T14:48:04.665Z,30.10
2023-05-01T14:50:31.902Z,30.20
2023-05-01T14:52:59.574Z,30.68
2023-05-01T14:55:29.320Z,30.13
2023-05-01T14:57:56.403Z,30.01
2023-05-01T15:00:24.340Z,30.59
2023-05-01T15:02:51.541Z,30.52
2023-05-01T15:05:18.733Z,29.73
2023-05-01T15:07:46.101Z,29.22
2023-05-01T15:10:13.025Z,29.20
2023-05-01T15:12:39.809Z,29.61
2023-05-01T15:15:07.657Z,29.54
2023-05-01T15:17:34.551Z,29.40
2023-05-01T15:20:01.487Z,29.44
2023-05-01T15:22:28.406Z,29.50
2023-05-01T15:24:55.157Z,30.13
2023-05-01T15:27:21.968Z,30.31
2023-05-01T15:29:48.868Z,29.76
2023-05-01T15:32:15.865Z,29.63
2023-05-01T15:34:42.971Z,29.75
2023-05-01T15:37:09.864Z,30.02
2023-05-01T15:39:36.945Z,30.52
2023-05-01T15:42:03.837Z,30.52
2023-05-01T15:44:31.965Z,30.35
2023-05-01T15:46:58.942Z,30.22
2023-05-01T15:49:25.862Z,30.01
2023-05-01T15:51:52.734Z,30.22
2023-05-01T15:54:19.683Z,30.32
2023-05-01T15:56:46.484Z,30.05
2023-05-01T15:59:14.540Z,30.41
2023-05-01T16:01:41.496Z,30.93
2023-05-01T16:04:08.491Z,30.81
2023-05-01T16:06:35.392Z,30.32
2023-05-01T16:09:02.629Z,30.52
2023-05-01T16:11:30.710Z,30.48
2023-05-01T16:14:13.053Z,30.93
2023-05-01T16:16:41.666Z,31.26
2023-05-01T16:19:08.677Z,31.35
2023-05-01T16:21:36.488Z,31.81
2023-05-01T16:24:03.693Z,32.11
2023-05-01T16:26:31.524Z,32.20
2023-05-01T16:29:03.062Z,31.99
2023-05-01T16:31:39.071Z,31.96
2023-05-01T16:34:07.222Z,31.92
2023-05-01T16:36:40.090Z,31.86
2023-05-01T16:39:08.974Z,32.17
2023-05-01T16:41:44.785Z,32.46
2023-05-01T16:44:12.765Z,33.03
2023-05-01T16:46:43.583Z,32.82
2023-05-01T16:49:11.447Z,32.77
2023-05-01T16:51:39.541Z,32.70
2023-05-01T16:54:06.586Z,33.10
2023-05-01T16:56:50.363Z,33.24
2023-05-01T16:59:25.041Z,33.32
2023-05-01T17:02:02.131Z,33.79
2023-05-01T17:04:29.083Z,34.10
2023-05-01T17:06:56.451Z,34.03
2023-05-01T17:09:23.502Z,33.24
2023-05-01T17:11:56.891Z,33.40
2023-05-01T17:14:23.983Z,33.29
2023-05-01T17:16:51.087Z,33.19
2023-05-01T17:19:17.990Z,33.77
2023-05-01T17:21:44.812Z,34.09
2023-05-01T17:24:13.143Z,34.48
2023-05-01T17:26:40.077Z,34.52
2023-05-01T17:29:06.964Z,34.91
2023-05-01T17:31:33.948Z,35.01
2023-05-01T17:34:00.998Z,35.92
2023-05-01T17:36:29.283Z,36.52
2023-05-01T17:38:56.468Z,37.08
2023-05-01T17:41:24.883Z,37.37
2023-05-01T17:43:51.704Z,37.16
2023-05-01T17:46:18.634Z,36.83
2023-05-01T17:48:45.639Z,37.60
2023-05-01T17:51:15.317Z,37.23
2023-05-01T17:53:42.354Z,37.05
2023-05-01T17:56:09.159Z,37.28
2023-05-01T17:58:36.469Z,36.60
2023-05-01T18:01:04.930Z,36.56
2023-05-01T18:03:35.135Z,36.89
2023-05-01T18:06:02.852Z,36.94
2023-05-01T18:08:29.802Z,36.86
2023-05-01T18:10:56.770Z,36.93
2023-05-01T18:13:28.662Z,37.26
2023-05-01T18:15:56.062Z,38.27
2023-05-01T18:18:23.399Z,38.36
2023-05-01T18:20:50.442Z,38.18
2023-05-01T18:23:20.507Z,38.04
2023-05-01T18:25:47.655Z,38.26
2023-05-01T18:28:16.646Z,38.36
2023-05-01T18:30:44.072Z,38.92
2023-05-01T18:33:13.554Z,39.09
2023-05-01T18:35:42.020Z,39.44
2023-05-01T18:38:12.390Z,38.99
2023-05-01T18:40:47.921Z,39.35
2023-05-01T18:43:17.183Z,39.92
2023-05-01T18:45:44.102Z,39.69
2023-05-01T18:48:13.236Z,39.82
2023-05-01T18:50:51.301Z,39.93
2023-05-01T18:53:25.876Z,39.90
2023-05-01T18:55:54.723Z,39.92
2023-05-01T18:58:27.609Z,40.49
2023-05-01T19:00:55.378Z,40.85
2023-05-01T19:03:24.371Z,40.67
2023-05-01T19:05:51.192Z,41.39
2023-05-01T19:08:18.085Z,41.23
2023-05-01T19:10:44.994Z,41.94
2023-05-01T19:13:12.436Z,41.80
2023-05-01T19:15:39.367Z,41.46
2023-05-01T19:18:06.323Z,41.44
2023-05-01T19:20:33.292Z,41.31
2023-05-01T19:23:00.127Z,41.38
2023-05-01T19:25:27.138Z,41.56
2023-05-01T19:27:54.041Z,41.22
2023-05-01T19:30:21.083Z,41.12
2023-05-01T19:32:48.181Z,41.37
2023-05-01T19:35:15.142Z,41.56
2023-05-01T19:37:41.958Z,41.68
2023-05-01T19:40:09.134Z,42.46
2023-05-01T19:42:36.595Z,43.59
2023-05-01T19:45:03.672Z,45.45
2023-05-01T19:47:30.720Z,46.29
2023-05-01T19:49:57.832Z,46.02
2023-05-01T19:52:24.982Z,45.91
2023-05-01T19:54:51.947Z,45.91
2023-05-01T19:57:18.834Z,45.97
2023-05-01T19:59:45.773Z,45.96
2023-05-01T20:02:12.661Z,45.99
2023-05-01T20:04:39.626Z,46.52
2023-05-01T20:07:06.535Z,46.66
2023-05-01T20:09:33.354Z,46.31
2023-05-01T20:12:00.187Z,46.74
2023-05-01T20:14:27.166Z,46.31
2023-05-01T20:16:54.178Z,46.24
2023-05-01T20:19:21.245Z,46.29
2023-05-01T20:21:48.737Z,46.08
2023-05-01T20:24:15.577Z,46.41
2023-05-01T20:26:42.373Z,46.59
2023-05-01T20:29:09.554Z,46.66
2023-05-01T20:31:36.604Z,46.84
2023-05-01T20:34:03.551Z,46.20
2023-05-01T20:36:30.440Z,46.43
2023-05-01T20:38:58.144Z,47.89
2023-05-01T20:41:25.718Z,48.26
2023-05-01T20:43:52.742Z,48.22
2023-05-01T20:46:20.058Z,48.03
2023-05-01T20:48:47.610Z,48.98
2023-05-01T20:51:15.955Z,48.52
2023-05-01T20:53:42.737Z,48.84
2023-05-01T20:56:09.566Z,49.29
2023-05-01T20:58:36.557Z,49.73
2023-05-01T21:01:03.407Z,50.06
2023-05-01T21:03:30.319Z,50.90
2023-05-01T21:06:00.982Z,50.90
2023-05-01T21:08:27.902Z,50.64
2023-05-01T21:10:54.955Z,51.22
2023-05-01T21:13:22.872Z,51.73
2023-05-01T21:15:49.740Z,51.63
2023-05-01T21:18:17.602Z,51.06
2023-05-01T21:20:46.284Z,51.24
2023-05-01T21:23:13.725Z,51.10
2023-05-01T21:25:40.528Z,50.48
2023-05-01T21:28:11.569Z,50.50
2023-05-01T21:30:38.388Z,50.86
2023-05-01T21:33:06.513Z,50.16
2023-05-01T21:35:33.381Z,50.19
2023-05-01T21:38:00.137Z,49.54
2023-05-01T21:40:27.596Z,49.25
2023-05-01T21:42:54.620Z,49.36
2023-05-01T21:45:21.504Z,50.03
2023-05-01T21:47:49.637Z,49.49
2023-05-01T21:50:18.049Z,49.24
2023-05-01T21:52:46.139Z,49.38
2023-05-01T21:55:20.795Z,50.47
2023-05-01T21:57:49.871Z,50.79
2023-05-01T22:00:18.231Z,49.79
2023-05-01T22:02:46.672Z,50.36
2023-05-01T22:05:13.914Z,50.82
2023-05-01T22:07:45.216Z,50.43
2023-05-01T22:10:17.133Z,50.28
2023-05-01T22:12:44.771Z,50.28
2023-05-01T22:15:12.219Z,50.54
2023-05-01T22:17:39.531Z,51.73
2023-05-01T22:20:07.311Z,52.22
2023-05-01T22:22:34.807Z,52.28
2023-05-01T22:25:01.661Z,52.66
2023-05-01T22:27:28.502Z,53.38
2023-05-01T22:29:55.305Z,52.67
2023-05-01T22:32:22.130Z,51.47
2023-05-01T22:34:49.139Z,51.49
2023-05-01T22:37:15.983Z,51.79
2023-05-01T22:39:43.002Z,51.04
2023-05-01T22:42:09.833Z,51.28
2023-05-01T22:44:36.732Z,51.67
2023-05-01T22:47:03.511Z,51.77
2023-05-01T22:49:32.852Z,51.89
2023-05-01T22:51:59.907Z,51.79
2023-05-01T22:54:26.640Z,51.68
2023-05-01T22:56:53.613Z,51.42
2023-05-01T22:59:21.838Z,51.38
2023-05-01T23:01:49.004Z,51.06
2023-05-01T23:04:15.953Z,50.96
2023-05-01T23:06:44.428Z,51.58
2023-05-01T23:09:12.000Z,51.54
2023-05-01T23:11:39.607Z,51.60
2023-05-01T23:14:06.405Z,50.98
2023-05-01T23:16:38.749Z,50.34
2023-05-01T23:19:05.679Z,50.47
2023-05-01T23:21:32.439Z,50.69
2023-05-01T23:23:59.253Z,51.11
2023-05-01T23:26:26.836Z,51.22
2023-05-01T23:28:53.859Z,51.55
2023-05-01T23:31:25.738Z,51.19
2023-05-01T23:33:53.414Z,50.91
2023-05-01T23:36:20.512Z,50.50
2023-05-01T23:38:47.495Z,50.35
2023-05-01T23:41:14.747Z,49.91
2023-05-01T23:43:41.565Z,49.59
2023-05-01T23:46:08.443Z,49.24
2023-05-01T23:48:35.378Z,48.85
2023-05-01T23:51:02.253Z,48.41
2023-05-01T23:53:29.079Z,48.20
2023-05-01T23:55:55.920Z,48.15
2023-05-01T23:58:23.594Z,48.51
